createdAt,value
2017-03-29T00:00:14.646Z,22
2017-03-29T00:01:22.732Z,22
2017-03-29T00:02:30.825Z,22
2017-03-29T00:03:38.915Z,22
2017-03-29T00:04:47.009Z,22
2017-03-29T00:05:55.092Z,22
2017-03-29T00:07:03.184Z,22
2017-03-29T00:08:11.276Z,22
2017-03-29T00:09:19.365Z,22
2017-03-29T00:10:27.453Z,22
2017-03-29T00:11:35.545Z,22
2017-03-29T00:12:43.635Z,22
2017-03-29T00:13:51.719Z,22
2017-03-29T00:14:59.816Z,22
2017-03-29T00:16:07.894Z,22
2017-03-29T00:17:15.986Z,22
2017-03-29T00:18:24.076Z,22
2017-03-29T00:19:32.168Z,22
2017-03-29T00:20:40.257Z,22
2017-03-29T00:21:48.341Z,22
2017-03-29T00:22:56.428Z,22
2017-03-29T00:24:04.517Z,22
2017-03-29T00:25:12.604Z,22
2017-03-29T00:26:20.696Z,22
2017-03-29T00:27:28.786Z,22
2017-03-29T00:28:36.956Z,22
2017-03-29T00:29:44.960Z,22
2017-03-29T00:30:53.047Z,22
2017-03-29T00:32:01.135Z,22
2017-03-29T00:33:09.220Z,22
2017-03-29T00:34:17.309Z,22
2017-03-29T00:35:25.399Z,22
2017-03-29T00:36:33.493Z,22
2017-03-29T00:37:41.575Z,22
2017-03-29T00:38:49.669Z,22
2017-03-29T00:39:57.753Z,22
2017-03-29T00:41:05.841Z,22
2017-03-29T00:42:13.934Z,22
2017-03-29T00:43:22.023Z,22
2017-03-29T00:44:30.113Z,22
2017-03-29T00:45:38.206Z,22
2017-03-29T00:46:46.285Z,22
2017-03-29T00:47:54.375Z,22
2017-03-29T00:49:02.463Z,22
2017-03-29T00:50:10.551Z,22
2017-03-29T00:51:18.649Z,22
2017-03-29T00:52:26.723Z,22
2017-03-29T00:53:34.817Z,22
2017-03-29T00:54:42.907Z,22
2017-03-29T00:55:50.996Z,22
2017-03-29T00:56:59.083Z,22
2017-03-29T00:58:07.168Z,22
2017-03-29T00:59:15.257Z,22
2017-03-29T01:00:23.344Z,22
2017-03-29T01:01:31.436Z,22
2017-03-29T01:02:39.524Z,22
2017-03-29T01:03:47.615Z,22
2017-03-29T01:04:55.697Z,22
2017-03-29T01:06:03.793Z,22
2017-03-29T01:07:11.880Z,22
2017-03-29T01:08:19.967Z,22
2017-03-29T01:09:28.058Z,22
2017-03-29T01:10:36.145Z,22
2017-03-29T01:11:44.238Z,22
2017-03-29T01:12:52.319Z,22
2017-03-29T01:14:00.409Z,22
2017-03-29T01:15:08.501Z,22
2017-03-29T01:16:16.585Z,22
2017-03-29T01:17:24.679Z,22
2017-03-29T01:18:32.768Z,22
2017-03-29T01:19:40.857Z,22
2017-03-29T01:20:48.940Z,22
2017-03-29T01:21:57.030Z,22
2017-03-29T01:23:05.121Z,22
2017-03-29T01:24:13.211Z,22
2017-03-29T01:25:21.307Z,22
2017-03-29T01:26:29.391Z,22
2017-03-29T01:27:37.476Z,22
2017-03-29T01:28:45.600Z,22
2017-03-29T01:29:53.672Z,22
2017-03-29T01:31:01.761Z,22
2017-03-29T01:32:09.845Z,22
2017-03-29T01:33:17.939Z,22
2017-03-29T01:34:26.029Z,22
2017-03-29T01:35:34.116Z,22
2017-03-29T01:36:42.202Z,22
2017-03-29T01:37:50.293Z,22
2017-03-29T01:38:58.377Z,22
2017-03-29T01:40:06.464Z,22
2017-03-29T01:41:14.561Z,22
2017-03-29T01:42:22.649Z,22
2017-03-29T01:43:30.740Z,22
2017-03-29T01:44:38.827Z,22
2017-03-29T01:45:46.919Z,22
2017-03-29T01:46:55.007Z,22
2017-03-29T01:48:03.092Z,22
2017-03-29T01:49:11.187Z,22
2017-03-29T01:50:19.273Z,22
2017-03-29T01:51:27.362Z,22
2017-03-29T01:52:35.443Z,22
2017-03-29T01:53:43.536Z,22
2017-03-29T01:54:51.623Z,22
2017-03-29T01:55:59.723Z,23
2017-03-29T01:57:07.804Z,22
2017-03-29T01:58:15.894Z,22
2017-03-29T01:59:23.980Z,22
2017-03-29T02:00:32.067Z,23
2017-03-29T02:01:40.157Z,22
2017-03-29T02:02:48.242Z,22
2017-03-29T02:03:56.334Z,22
2017-03-29T02:05:04.423Z,23
2017-03-29T02:06:12.509Z,23
2017-03-29T02:07:20.593Z,22
2017-03-29T02:08:28.685Z,23
2017-03-29T02:09:36.774Z,23
2017-03-29T02:10:44.877Z,23
2017-03-29T02:11:52.947Z,22
2017-03-29T02:13:01.036Z,22
2017-03-29T02:14:09.125Z,22
2017-03-29T02:15:17.209Z,22
2017-03-29T02:16:25.302Z,22
2017-03-29T02:17:33.387Z,22
2017-03-29T02:18:41.472Z,22
2017-03-29T02:19:49.561Z,22
2017-03-29T02:20:57.652Z,22
2017-03-29T02:22:05.746Z,23
2017-03-29T02:23:13.834Z,22
2017-03-29T02:24:21.919Z,23
2017-03-29T02:25:30.011Z,22
2017-03-29T02:26:38.092Z,22
2017-03-29T02:27:46.182Z,22
2017-03-29T02:28:54.274Z,22
2017-03-29T02:30:02.363Z,22
2017-03-29T02:31:10.447Z,23
2017-03-29T02:32:18.538Z,22
2017-03-29T02:33:26.625Z,22
2017-03-29T02:34:34.711Z,22
2017-03-29T02:35:42.793Z,23
2017-03-29T02:36:50.884Z,22
2017-03-29T02:37:58.976Z,22
2017-03-29T02:39:07.061Z,22
2017-03-29T02:40:15.156Z,22
2017-03-29T02:41:23.240Z,22
2017-03-29T02:42:31.323Z,22
2017-03-29T02:43:39.413Z,22
2017-03-29T02:44:47.506Z,22
2017-03-29T02:45:55.591Z,23
2017-03-29T02:47:03.685Z,22
2017-03-29T02:48:11.765Z,22
2017-03-29T02:49:19.881Z,22
2017-03-29T02:50:27.936Z,22
2017-03-29T02:51:36.024Z,22
2017-03-29T02:52:44.112Z,22
2017-03-29T02:53:52.208Z,22
2017-03-29T02:55:00.298Z,22
2017-03-29T02:56:08.386Z,23
2017-03-29T02:57:16.529Z,22
2017-03-29T02:58:24.572Z,22
2017-03-29T02:59:32.656Z,22
2017-03-29T03:00:40.752Z,22
2017-03-29T03:01:48.839Z,23
2017-03-29T03:02:56.925Z,22
2017-03-29T03:04:05.017Z,22
2017-03-29T03:05:13.103Z,22
2017-03-29T03:06:21.191Z,22
2017-03-29T03:07:29.292Z,22
2017-03-29T03:08:37.370Z,22
2017-03-29T03:09:45.457Z,22
2017-03-29T03:10:53.549Z,22
2017-03-29T03:12:01.638Z,22
2017-03-29T03:13:09.762Z,22
2017-03-29T03:14:17.896Z,22
2017-03-29T03:15:25.904Z,22
2017-03-29T03:16:33.983Z,22
2017-03-29T03:17:42.069Z,22
2017-03-29T03:18:50.156Z,22
2017-03-29T03:19:58.255Z,22
2017-03-29T03:21:06.339Z,22
2017-03-29T03:22:14.424Z,22
2017-03-29T03:23:22.514Z,22
2017-03-29T03:24:30.596Z,23
2017-03-29T03:25:38.684Z,22
2017-03-29T03:26:46.767Z,22
2017-03-29T03:27:54.862Z,22
2017-03-29T03:29:02.951Z,22
2017-03-29T03:30:11.036Z,22
2017-03-29T03:31:19.125Z,22
2017-03-29T03:32:27.212Z,22
2017-03-29T03:33:35.311Z,22
2017-03-29T03:34:43.392Z,22
2017-03-29T03:35:51.485Z,22
2017-03-29T03:36:59.577Z,22
2017-03-29T03:38:07.662Z,22
2017-03-29T03:39:15.754Z,22
2017-03-29T03:40:23.846Z,22
2017-03-29T03:41:31.925Z,22
2017-03-29T03:42:40.015Z,22
2017-03-29T03:43:48.102Z,22
2017-03-29T03:44:56.189Z,21
2017-03-29T03:46:04.273Z,22
2017-03-29T03:47:12.365Z,22
2017-03-29T03:48:20.452Z,22
2017-03-29T03:49:28.545Z,22
2017-03-29T03:50:36.627Z,22
2017-03-29T03:51:44.718Z,22
2017-03-29T03:52:52.800Z,22
2017-03-29T03:54:00.885Z,22
2017-03-29T03:55:08.975Z,22
2017-03-29T03:56:17.064Z,22
2017-03-29T03:57:25.151Z,22
2017-03-29T03:58:33.233Z,22
2017-03-29T03:59:41.333Z,22
2017-03-29T04:00:49.415Z,22
2017-03-29T04:01:57.500Z,22
2017-03-29T04:03:05.591Z,22
2017-03-29T04:04:13.679Z,21
2017-03-29T04:05:21.765Z,22
2017-03-29T04:06:29.853Z,22
2017-03-29T04:07:37.945Z,22
2017-03-29T04:08:46.039Z,22
2017-03-29T04:09:54.115Z,22
2017-03-29T04:11:02.206Z,22
2017-03-29T04:12:10.312Z,22
2017-03-29T04:13:18.395Z,22
2017-03-29T04:14:26.498Z,22
2017-03-29T04:15:34.583Z,22
2017-03-29T04:16:42.667Z,22
2017-03-29T04:17:50.753Z,22
2017-03-29T04:18:58.839Z,22
2017-03-29T04:20:06.926Z,22
2017-03-29T04:21:15.018Z,22
2017-03-29T04:22:23.103Z,22
2017-03-29T04:23:31.728Z,22
2017-03-29T04:24:39.277Z,22
2017-03-29T04:25:47.362Z,22
2017-03-29T04:26:55.456Z,22
2017-03-29T04:28:03.540Z,22
2017-03-29T04:29:11.621Z,22
2017-03-29T04:30:19.711Z,22
2017-03-29T04:31:27.798Z,22
2017-03-29T04:32:35.882Z,22
2017-03-29T04:33:43.968Z,22
2017-03-29T04:34:52.057Z,22
2017-03-29T04:36:00.150Z,21
2017-03-29T04:37:08.269Z,22
2017-03-29T04:38:16.324Z,22
2017-03-29T04:39:24.413Z,22
2017-03-29T04:40:32.508Z,22
2017-03-29T04:41:40.595Z,22
2017-03-29T04:42:48.692Z,22
2017-03-29T04:43:56.771Z,22
2017-03-29T04:45:04.857Z,21
2017-03-29T04:46:12.945Z,22
2017-03-29T04:47:21.032Z,21
2017-03-29T04:48:29.119Z,22
2017-03-29T04:49:37.199Z,22
2017-03-29T04:50:45.289Z,22
2017-03-29T04:51:53.372Z,22
2017-03-29T04:53:01.460Z,22
2017-03-29T04:54:09.550Z,22
2017-03-29T04:55:17.636Z,22
2017-03-29T04:56:25.724Z,22
2017-03-29T04:57:33.805Z,22
2017-03-29T04:58:41.900Z,23
2017-03-29T04:59:49.988Z,22
2017-03-29T05:00:58.071Z,22
2017-03-29T05:02:06.161Z,22
2017-03-29T05:03:14.907Z,22
2017-03-29T05:04:22.731Z,23
2017-03-29T05:05:30.428Z,22
2017-03-29T05:06:38.899Z,23
2017-03-29T05:07:46.814Z,23
2017-03-29T05:08:54.678Z,23
2017-03-29T05:10:02.882Z,23
2017-03-29T05:11:10.852Z,22
2017-03-29T05:12:18.944Z,22
2017-03-29T05:13:27.028Z,22
2017-03-29T05:14:35.121Z,22
2017-03-29T05:15:43.206Z,22
2017-03-29T05:16:51.292Z,22
2017-03-29T05:17:59.387Z,23
2017-03-29T05:19:07.471Z,23
2017-03-29T05:20:15.558Z,23
2017-03-29T05:21:24.024Z,23
2017-03-29T05:22:31.738Z,23
2017-03-29T05:23:39.823Z,23
2017-03-29T05:24:48.159Z,23
2017-03-29T05:25:56.001Z,23
2017-03-29T05:27:04.087Z,23
2017-03-29T05:28:12.167Z,23
2017-03-29T05:29:20.259Z,23
2017-03-29T05:30:28.346Z,23
2017-03-29T05:31:37.146Z,23
2017-03-29T05:32:44.814Z,23
2017-03-29T05:33:52.604Z,23
2017-03-29T05:35:00.779Z,23
2017-03-29T05:36:08.779Z,23
2017-03-29T05:37:16.867Z,23
2017-03-29T05:38:24.958Z,23
2017-03-29T05:39:33.034Z,23
2017-03-29T05:40:41.121Z,23
2017-03-29T05:41:49.214Z,23
2017-03-29T05:42:57.367Z,23
2017-03-29T05:44:05.384Z,23
2017-03-29T05:45:13.477Z,23
2017-03-29T05:46:21.895Z,23
2017-03-29T05:47:29.671Z,23
2017-03-29T05:48:37.734Z,23
2017-03-29T05:49:45.827Z,23
2017-03-29T05:50:53.931Z,23
2017-03-29T05:52:01.999Z,23
2017-03-29T05:53:10.087Z,23
2017-03-29T05:54:18.174Z,23
2017-03-29T05:55:26.257Z,23
2017-03-29T05:56:34.612Z,23
2017-03-29T05:57:42.436Z,23
2017-03-29T05:58:50.519Z,23
2017-03-29T05:59:58.668Z,23
2017-03-29T06:01:06.691Z,23
2017-03-29T06:02:14.777Z,23
2017-03-29T06:03:22.864Z,23
2017-03-29T06:04:30.946Z,23
2017-03-29T06:05:39.037Z,23
2017-03-29T06:06:47.124Z,23
2017-03-29T06:07:55.208Z,23
2017-03-29T06:09:03.296Z,23
2017-03-29T06:10:11.382Z,23
2017-03-29T06:11:19.468Z,23
2017-03-29T06:12:27.551Z,22
2017-03-29T06:13:35.642Z,22
2017-03-29T06:14:43.728Z,23
2017-03-29T06:15:51.810Z,22
2017-03-29T06:16:59.916Z,23
2017-03-29T06:18:07.989Z,22
2017-03-29T06:19:16.286Z,23
2017-03-29T06:20:24.160Z,22
2017-03-29T06:21:32.246Z,23
2017-03-29T06:22:40.329Z,23
2017-03-29T06:23:48.412Z,23
2017-03-29T06:24:56.507Z,23
2017-03-29T06:26:04.588Z,23
2017-03-29T06:27:12.695Z,23
2017-03-29T06:28:20.761Z,23
2017-03-29T06:29:28.894Z,23
2017-03-29T06:30:36.929Z,23
2017-03-29T06:31:45.015Z,23
2017-03-29T06:32:53.106Z,23
2017-03-29T06:34:01.188Z,23
2017-03-29T06:35:09.660Z,23
2017-03-29T06:36:17.360Z,23
2017-03-29T06:37:25.449Z,23
2017-03-29T06:38:33.536Z,23
2017-03-29T06:39:41.617Z,23
2017-03-29T06:40:49.706Z,23
2017-03-29T06:41:57.792Z,24
2017-03-29T06:43:05.875Z,24
2017-03-29T06:44:13.963Z,24
2017-03-29T06:45:22.049Z,24
2017-03-29T06:46:30.135Z,24
2017-03-29T06:47:38.216Z,23
2017-03-29T06:48:46.305Z,24
2017-03-29T06:49:54.407Z,24
2017-03-29T06:51:02.474Z,24
2017-03-29T06:52:10.569Z,24
2017-03-29T06:53:18.657Z,24
2017-03-29T06:54:26.739Z,24
2017-03-29T06:55:34.825Z,24
2017-03-29T06:56:43.055Z,24
2017-03-29T06:57:51.000Z,24
2017-03-29T06:58:59.085Z,24
2017-03-29T07:00:07.172Z,24
2017-03-29T07:01:15.264Z,24
2017-03-29T07:02:23.342Z,24
2017-03-29T07:03:31.653Z,24
2017-03-29T07:04:39.571Z,24
2017-03-29T07:05:47.604Z,24
2017-03-29T07:06:55.692Z,24
2017-03-29T07:08:03.779Z,24
2017-03-29T07:09:11.866Z,24
2017-03-29T07:10:19.952Z,24
2017-03-29T07:11:28.034Z,24
2017-03-29T07:12:36.125Z,24
2017-03-29T07:13:44.353Z,24
2017-03-29T07:14:52.394Z,24
2017-03-29T07:16:00.484Z,24
2017-03-29T07:17:08.565Z,24
2017-03-29T07:18:16.645Z,24
2017-03-29T07:19:24.729Z,24
2017-03-29T07:20:32.826Z,24
2017-03-29T07:21:40.910Z,24
2017-03-29T07:22:48.993Z,24
2017-03-29T07:23:57.085Z,24
2017-03-29T07:25:05.326Z,24
2017-03-29T07:26:13.315Z,24
2017-03-29T07:27:21.470Z,24
2017-03-29T07:28:29.567Z,24
2017-03-29T07:29:37.780Z,24
2017-03-29T07:30:45.672Z,24
2017-03-29T07:31:54.210Z,24
2017-03-29T07:33:01.879Z,24
2017-03-29T07:34:09.986Z,25
2017-03-29T07:35:18.438Z,24
2017-03-29T07:36:26.355Z,24
2017-03-29T07:37:34.419Z,24
2017-03-29T07:38:42.981Z,24
2017-03-29T07:39:51.407Z,25
2017-03-29T07:40:58.785Z,25
2017-03-29T07:42:06.695Z,25
2017-03-29T07:43:14.829Z,25
2017-03-29T07:44:22.984Z,25
2017-03-29T07:45:31.772Z,25
2017-03-29T07:46:38.915Z,25
2017-03-29T07:47:46.966Z,25
2017-03-29T07:48:55.048Z,24
2017-03-29T07:50:03.143Z,25
2017-03-29T07:51:11.550Z,25
2017-03-29T07:52:19.354Z,25
2017-03-29T07:53:27.300Z,25
2017-03-29T07:54:36.599Z,25
2017-03-29T07:55:43.731Z,25
2017-03-29T07:56:51.731Z,25
2017-03-29T07:57:59.704Z,25
2017-03-29T07:59:08.930Z,25
2017-03-29T08:00:16.210Z,25
2017-03-29T08:01:24.172Z,24
2017-03-29T08:02:32.143Z,25
2017-03-29T08:03:40.579Z,25
2017-03-29T08:04:48.394Z,25
2017-03-29T08:05:56.284Z,25
2017-03-29T08:07:04.390Z,25
2017-03-29T08:08:12.455Z,25
2017-03-29T08:09:20.567Z,25
2017-03-29T08:10:28.747Z,25
2017-03-29T08:11:36.727Z,25
2017-03-29T08:12:44.807Z,25
2017-03-29T08:13:52.902Z,25
2017-03-29T08:15:01.236Z,25
2017-03-29T08:16:09.083Z,25
2017-03-29T08:17:17.415Z,25
2017-03-29T08:18:25.241Z,25
2017-03-29T08:19:33.383Z,25
2017-03-29T08:20:41.437Z,25
2017-03-29T08:21:49.486Z,25
2017-03-29T08:22:57.581Z,24
2017-03-29T08:24:05.676Z,25
2017-03-29T08:25:13.761Z,25
2017-03-29T08:26:21.842Z,24
2017-03-29T08:27:29.938Z,25
2017-03-29T08:28:38.017Z,25
2017-03-29T08:28:38.031Z,25
2017-03-29T08:29:46.106Z,25
2017-03-29T08:30:54.208Z,25
2017-03-29T08:32:02.290Z,24
2017-03-29T08:33:10.363Z,24
2017-03-29T08:34:18.467Z,25
2017-03-29T08:35:26.546Z,25
2017-03-29T08:36:34.542Z,25
2017-03-29T08:37:42.630Z,25
2017-03-29T08:38:50.719Z,25
2017-03-29T08:39:58.802Z,25
2017-03-29T08:41:06.886Z,25
2017-03-29T08:42:14.978Z,25
2017-03-29T08:43:23.063Z,25
2017-03-29T08:44:31.155Z,25
2017-03-29T08:45:39.261Z,25
2017-03-29T08:46:47.328Z,25
2017-03-29T08:47:55.414Z,25
2017-03-29T08:49:03.500Z,25
2017-03-29T08:50:11.585Z,25
2017-03-29T08:51:19.671Z,25
2017-03-29T08:52:27.754Z,25
2017-03-29T08:53:35.839Z,25
2017-03-29T08:54:43.939Z,25
2017-03-29T08:55:52.282Z,25
2017-03-29T08:57:00.106Z,25
2017-03-29T08:58:08.196Z,25
2017-03-29T08:59:16.284Z,25
2017-03-29T09:00:24.372Z,25
2017-03-29T09:01:32.454Z,25
2017-03-29T09:02:40.615Z,25
2017-03-29T09:03:48.631Z,24
2017-03-29T09:04:56.713Z,24
2017-03-29T09:06:04.804Z,25
2017-03-29T09:07:12.917Z,25
2017-03-29T09:08:20.972Z,25
2017-03-29T09:09:29.064Z,25
2017-03-29T09:10:37.147Z,25
2017-03-29T09:11:45.235Z,25
2017-03-29T09:12:53.319Z,25
2017-03-29T09:14:01.421Z,25
2017-03-29T09:15:09.505Z,25
2017-03-29T09:16:17.580Z,25
2017-03-29T09:17:25.668Z,25
2017-03-29T09:18:33.759Z,25
2017-03-29T09:19:41.844Z,25
2017-03-29T09:20:49.929Z,25
2017-03-29T09:21:58.018Z,25
2017-03-29T09:23:06.102Z,25
2017-03-29T09:24:14.188Z,25
2017-03-29T09:25:22.274Z,25
2017-03-29T09:26:30.362Z,25
2017-03-29T09:27:38.446Z,25
2017-03-29T09:28:46.534Z,25
2017-03-29T09:29:54.622Z,25
2017-03-29T09:31:02.707Z,25
2017-03-29T09:32:10.794Z,25
2017-03-29T09:33:18.892Z,25
2017-03-29T09:34:26.968Z,25
2017-03-29T09:35:35.052Z,25
2017-03-29T09:36:43.136Z,25
2017-03-29T09:37:51.223Z,25
2017-03-29T09:38:59.363Z,25
2017-03-29T09:40:07.392Z,25
2017-03-29T09:41:15.482Z,25
2017-03-29T09:42:23.568Z,25
2017-03-29T09:43:31.655Z,25
2017-03-29T09:44:39.741Z,25
2017-03-29T09:45:47.833Z,25
2017-03-29T09:46:55.918Z,25
2017-03-29T09:48:04.018Z,25
2017-03-29T09:49:12.088Z,25
2017-03-29T09:50:20.174Z,25
2017-03-29T09:51:28.256Z,25
2017-03-29T09:52:36.461Z,25
2017-03-29T09:53:44.435Z,25
2017-03-29T09:54:52.535Z,25
2017-03-29T09:56:00.617Z,25
2017-03-29T09:57:08.705Z,25
2017-03-29T09:58:16.789Z,25
2017-03-29T09:59:24.875Z,25
2017-03-29T10:00:32.958Z,25
2017-03-29T10:01:41.051Z,25
2017-03-29T10:02:49.135Z,25
2017-03-29T10:03:57.229Z,25
2017-03-29T10:05:05.315Z,25
2017-03-29T10:06:13.403Z,25
2017-03-29T10:07:21.485Z,25
2017-03-29T10:08:29.570Z,25
2017-03-29T10:09:37.665Z,25
2017-03-29T10:10:45.747Z,25
2017-03-29T10:11:53.843Z,25
2017-03-29T10:13:01.918Z,25
2017-03-29T10:14:10.004Z,25
2017-03-29T10:15:18.092Z,25
2017-03-29T10:16:26.177Z,25
2017-03-29T10:17:34.267Z,25
2017-03-29T10:18:42.357Z,25
2017-03-29T10:19:50.440Z,25
2017-03-29T10:20:58.531Z,25
2017-03-29T10:22:06.627Z,25
2017-03-29T10:23:14.712Z,25
2017-03-29T10:24:22.791Z,25
2017-03-29T10:25:30.886Z,25
2017-03-29T10:26:38.966Z,25
2017-03-29T10:27:47.063Z,25
2017-03-29T10:28:55.146Z,25
2017-03-29T10:30:03.226Z,25
2017-03-29T10:31:11.314Z,25
2017-03-29T10:32:19.400Z,25
2017-03-29T10:33:27.494Z,25
2017-03-29T10:34:35.582Z,25
2017-03-29T10:35:43.672Z,25
2017-03-29T10:36:51.770Z,25
2017-03-29T10:37:59.843Z,26
2017-03-29T10:39:07.931Z,25
2017-03-29T10:40:16.014Z,25
2017-03-29T10:41:24.103Z,26
2017-03-29T10:42:32.185Z,25
2017-03-29T10:43:40.272Z,25
2017-03-29T10:44:48.425Z,25
2017-03-29T10:45:56.448Z,25
2017-03-29T10:47:04.537Z,26
2017-03-29T10:48:12.621Z,25
2017-03-29T10:49:20.710Z,26
2017-03-29T10:50:29.172Z,25
2017-03-29T10:51:36.880Z,26
2017-03-29T10:52:44.975Z,26
2017-03-29T10:53:53.056Z,25
2017-03-29T10:55:01.138Z,25
2017-03-29T10:56:09.226Z,25
2017-03-29T10:57:17.315Z,25
2017-03-29T10:58:25.403Z,25
2017-03-29T10:59:33.485Z,25
2017-03-29T11:00:41.579Z,25
2017-03-29T11:01:49.662Z,25
2017-03-29T11:02:57.746Z,26
2017-03-29T11:04:05.837Z,25
2017-03-29T11:05:13.922Z,25
2017-03-29T11:06:22.007Z,25
2017-03-29T11:07:30.262Z,25
2017-03-29T11:08:38.180Z,25
2017-03-29T11:09:46.271Z,25
2017-03-29T11:10:54.360Z,26
2017-03-29T11:12:02.447Z,25
2017-03-29T11:13:10.534Z,25
2017-03-29T11:14:18.621Z,25
2017-03-29T11:15:26.705Z,25
2017-03-29T11:16:34.793Z,25
2017-03-29T11:17:42.874Z,25
2017-03-29T11:18:50.971Z,25
2017-03-29T11:19:59.059Z,25
2017-03-29T11:21:07.566Z,25
2017-03-29T11:22:15.248Z,25
2017-03-29T11:23:23.350Z,26
2017-03-29T11:24:31.414Z,25
2017-03-29T11:25:39.497Z,25
2017-03-29T11:26:47.585Z,25
2017-03-29T11:27:55.674Z,25
2017-03-29T11:29:03.762Z,25
2017-03-29T11:30:11.843Z,25
2017-03-29T11:31:20.021Z,26
2017-03-29T11:32:28.024Z,26
2017-03-29T11:33:36.109Z,25
2017-03-29T11:34:44.191Z,25
2017-03-29T11:35:52.281Z,25
2017-03-29T11:37:00.365Z,25
2017-03-29T11:38:08.450Z,25
2017-03-29T11:39:16.542Z,25
2017-03-29T11:40:24.644Z,25
2017-03-29T11:41:32.717Z,25
2017-03-29T11:42:40.803Z,26
2017-03-29T11:43:48.891Z,26
2017-03-29T11:44:56.985Z,25
2017-03-29T11:46:05.074Z,26
2017-03-29T11:47:13.157Z,26
2017-03-29T11:48:21.275Z,25
2017-03-29T11:49:29.335Z,26
2017-03-29T11:50:37.419Z,25
2017-03-29T11:51:45.520Z,25
2017-03-29T11:52:53.655Z,26
2017-03-29T11:54:01.687Z,25
2017-03-29T11:55:10.072Z,25
2017-03-29T11:56:17.859Z,26
2017-03-29T11:57:25.945Z,25
2017-03-29T11:58:34.032Z,26
2017-03-29T11:59:42.121Z,26
2017-03-29T12:00:50.205Z,25
2017-03-29T12:01:58.295Z,25
2017-03-29T12:03:06.381Z,25
2017-03-29T12:04:14.467Z,26
2017-03-29T12:05:22.551Z,25
2017-03-29T12:06:30.637Z,25
2017-03-29T12:07:38.725Z,25
2017-03-29T12:08:47.067Z,26
2017-03-29T12:09:54.899Z,25
2017-03-29T12:11:02.989Z,25
2017-03-29T12:12:11.097Z,25
2017-03-29T12:13:19.161Z,26
2017-03-29T12:14:27.597Z,26
2017-03-29T12:15:35.335Z,25
2017-03-29T12:16:43.422Z,26
2017-03-29T12:17:51.836Z,25
2017-03-29T12:18:59.790Z,25
2017-03-29T12:20:07.689Z,26
2017-03-29T12:21:15.775Z,26
2017-03-29T12:22:24.248Z,26
2017-03-29T12:23:31.949Z,26
2017-03-29T12:24:40.036Z,26
2017-03-29T12:25:48.121Z,25
2017-03-29T12:26:56.210Z,26
2017-03-29T12:28:04.296Z,26
2017-03-29T12:29:12.381Z,26
2017-03-29T12:30:20.468Z,26
2017-03-29T12:31:28.558Z,26
2017-03-29T12:32:36.645Z,26
2017-03-29T12:33:44.729Z,26
2017-03-29T12:34:52.818Z,25
2017-03-29T12:36:00.912Z,25
2017-03-29T12:37:09.008Z,26
2017-03-29T12:38:17.082Z,26
2017-03-29T12:39:25.173Z,26
2017-03-29T12:40:33.252Z,26
2017-03-29T12:41:41.340Z,26
2017-03-29T12:42:49.431Z,26
2017-03-29T12:43:57.515Z,26
2017-03-29T12:45:05.602Z,25
2017-03-29T12:46:13.688Z,26
2017-03-29T12:47:21.777Z,26
2017-03-29T12:48:29.868Z,26
2017-03-29T12:49:37.950Z,26
2017-03-29T12:50:46.041Z,26
2017-03-29T12:51:54.133Z,26
2017-03-29T12:53:02.218Z,26
2017-03-29T12:54:10.305Z,26
2017-03-29T12:55:18.395Z,26
2017-03-29T12:56:26.483Z,26
2017-03-29T12:57:34.571Z,26
2017-03-29T12:58:42.664Z,26
2017-03-29T12:59:50.757Z,26
2017-03-29T13:00:58.850Z,26
2017-03-29T13:02:06.930Z,26
2017-03-29T13:03:15.016Z,26
2017-03-29T13:04:23.106Z,26
2017-03-29T13:05:31.235Z,26
2017-03-29T13:06:39.281Z,26
2017-03-29T13:07:47.368Z,26
2017-03-29T13:08:55.451Z,26
2017-03-29T13:10:03.539Z,26
2017-03-29T13:11:11.624Z,26
2017-03-29T13:12:19.713Z,26
2017-03-29T13:13:27.797Z,26
2017-03-29T13:14:35.885Z,26
2017-03-29T13:15:43.972Z,26
2017-03-29T13:16:52.057Z,26
2017-03-29T13:18:00.148Z,26
2017-03-29T13:19:08.233Z,26
2017-03-29T13:20:16.322Z,26
2017-03-29T13:21:24.404Z,26
2017-03-29T13:22:32.491Z,26
2017-03-29T13:23:40.583Z,26
2017-03-29T13:24:48.696Z,26
2017-03-29T13:25:56.757Z,26
2017-03-29T13:27:04.843Z,26
2017-03-29T13:28:12.929Z,26
2017-03-29T13:29:21.021Z,26
2017-03-29T13:30:29.106Z,26
2017-03-29T13:31:37.190Z,26
2017-03-29T13:32:45.273Z,26
2017-03-29T13:33:53.361Z,26
2017-03-29T13:35:01.444Z,26
2017-03-29T13:36:09.533Z,26
2017-03-29T13:37:17.619Z,26
2017-03-29T13:38:25.707Z,26
2017-03-29T13:39:33.794Z,26
2017-03-29T13:40:41.877Z,26
2017-03-29T13:41:49.967Z,26
2017-03-29T13:42:58.060Z,26
2017-03-29T13:44:06.138Z,26
2017-03-29T13:45:14.223Z,26
2017-03-29T13:46:22.319Z,26
2017-03-29T13:47:30.401Z,26
2017-03-29T13:48:38.487Z,26
2017-03-29T13:49:46.575Z,26
2017-03-29T13:50:54.661Z,26
2017-03-29T13:52:02.747Z,26
2017-03-29T13:53:10.837Z,26
2017-03-29T13:54:18.972Z,26
2017-03-29T13:55:27.015Z,26
2017-03-29T13:56:35.099Z,26
2017-03-29T13:57:43.188Z,26
2017-03-29T13:58:51.276Z,26
2017-03-29T13:59:59.453Z,26
2017-03-29T14:01:07.444Z,26
2017-03-29T14:02:15.535Z,26
2017-03-29T14:03:23.623Z,26
2017-03-29T14:04:31.705Z,27
2017-03-29T14:05:39.797Z,26
2017-03-29T14:06:47.882Z,26
2017-03-29T14:07:55.971Z,26
2017-03-29T14:09:04.056Z,26
2017-03-29T14:10:12.147Z,26
2017-03-29T14:11:20.230Z,26
2017-03-29T14:12:28.320Z,26
2017-03-29T14:13:36.411Z,26
2017-03-29T14:14:44.493Z,26
2017-03-29T14:15:52.580Z,27
2017-03-29T14:17:00.679Z,27
2017-03-29T14:18:08.761Z,26
2017-03-29T14:19:16.841Z,26
2017-03-29T14:20:24.924Z,26
2017-03-29T14:21:33.017Z,26
2017-03-29T14:22:41.101Z,25
2017-03-29T14:23:49.190Z,25
2017-03-29T14:24:57.278Z,25
2017-03-29T14:26:05.367Z,24
2017-03-29T14:27:13.446Z,24
2017-03-29T14:28:21.533Z,24
2017-03-29T14:29:29.622Z,24
2017-03-29T14:30:37.709Z,24
2017-03-29T14:31:45.793Z,24
2017-03-29T14:32:53.890Z,24
2017-03-29T14:34:02.055Z,24
2017-03-29T14:35:10.058Z,24
2017-03-29T14:36:18.144Z,24
2017-03-29T14:37:26.233Z,23
2017-03-29T14:38:34.322Z,23
2017-03-29T14:39:42.409Z,23
2017-03-29T14:40:50.492Z,23
2017-03-29T14:41:58.579Z,23
2017-03-29T14:43:06.664Z,23
2017-03-29T14:44:14.749Z,23
2017-03-29T14:45:22.837Z,22
2017-03-29T14:46:30.925Z,22
2017-03-29T14:47:39.011Z,22
2017-03-29T14:48:47.107Z,22
2017-03-29T14:49:55.194Z,22
2017-03-29T14:51:03.277Z,22
2017-03-29T14:52:11.365Z,22
2017-03-29T14:53:19.456Z,22
2017-03-29T14:54:27.538Z,22
2017-03-29T14:55:35.631Z,22
2017-03-29T14:56:43.724Z,23
2017-03-29T14:57:51.810Z,23
2017-03-29T14:58:59.896Z,22
2017-03-29T15:00:07.980Z,22
2017-03-29T15:01:16.072Z,22
2017-03-29T15:02:24.161Z,22
2017-03-29T15:03:32.267Z,22
2017-03-29T15:04:40.330Z,22
2017-03-29T15:05:48.417Z,22
2017-03-29T15:06:56.498Z,22
2017-03-29T15:08:04.587Z,23
2017-03-29T15:09:12.676Z,23
2017-03-29T15:10:20.764Z,22
2017-03-29T15:11:28.848Z,22
2017-03-29T15:12:36.940Z,21
2017-03-29T15:13:45.025Z,21
2017-03-29T15:14:53.110Z,21
2017-03-29T15:16:01.198Z,22
2017-03-29T15:17:09.283Z,22
2017-03-29T15:18:17.366Z,21
2017-03-29T15:19:25.453Z,22
2017-03-29T15:20:33.539Z,21
2017-03-29T15:21:41.624Z,21
2017-03-29T15:22:49.713Z,21
2017-03-29T15:23:57.798Z,21
2017-03-29T15:25:05.889Z,21
2017-03-29T15:26:13.974Z,22
2017-03-29T15:27:22.056Z,21
2017-03-29T15:28:30.146Z,22
2017-03-29T15:29:38.233Z,22
2017-03-29T15:30:46.316Z,21
2017-03-29T15:31:54.403Z,21
2017-03-29T15:33:02.493Z,21
2017-03-29T15:34:10.576Z,21
2017-03-29T15:35:18.663Z,21
2017-03-29T15:36:26.749Z,21
2017-03-29T15:37:34.836Z,21
2017-03-29T15:38:42.920Z,21
2017-03-29T15:39:51.010Z,21
2017-03-29T15:40:59.093Z,21
2017-03-29T15:42:07.235Z,21
2017-03-29T15:43:15.261Z,21
2017-03-29T15:44:23.349Z,22
2017-03-29T15:45:31.435Z,21
2017-03-29T15:46:39.521Z,21
2017-03-29T15:47:47.614Z,21
2017-03-29T15:48:55.693Z,21
2017-03-29T15:50:03.974Z,21
2017-03-29T15:51:11.868Z,21
2017-03-29T15:52:19.953Z,21
2017-03-29T15:53:28.037Z,21
2017-03-29T15:54:36.123Z,21
2017-03-29T15:55:44.444Z,21
2017-03-29T15:56:52.304Z,21
2017-03-29T15:58:00.508Z,21
2017-03-29T15:59:08.474Z,21
2017-03-29T16:00:16.563Z,21
2017-03-29T16:01:24.651Z,21
2017-03-29T16:02:32.737Z,21
2017-03-29T16:03:40.823Z,21
2017-03-29T16:04:48.911Z,21
2017-03-29T16:05:56.997Z,21
2017-03-29T16:07:05.078Z,21
2017-03-29T16:08:13.167Z,20
2017-03-29T16:09:21.254Z,21